»·PEaware :: N660WC KSDM-KBUR

N660WC :: KSDM-KBUR

FLIGHT INFORMATION

Flight Status: Arrived
Operator: Privately registered:
United States
More flights under this callsign
Pilot: John H. (7647)
Aircraft: CESSNA T210 TURBO CENTURION
(T210)
More flights by this aircraft type
Origin: KSDM Brown Mun
United States
Destination: KBUR Bob Hope-Burbank
United States
More flights between these airports :: More routes between these airports
Route: +MZB V23 POPPR SMO125 SMO SMO311 SILEX
File this flight plan on PilotEdge
Remarks: TEC route SANP13
Altitude:
(Current/Filed)
6,000ft
Speed:
(Current/Filed)
160kts
Departed: 02-Sep-18 04:26 PM
Arrived: 02-Sep-18 05:31 PM
Distance/Time
Traveled:
120nm/1:05
Distance/Time
To Go:
Arrived

Flight Plot

Page will automatically refresh every two minutes.

Flight plan parsing failed; only flown route is shown


Map Options




Map Legend


Flown Route
Filed Route
Departure Airport
Arrival Airport
Navaid (VOR, NDB)
Fix

Horizontal Profiles

Position Reports

Time Latitude Longitude Heading Altitude Ground
Speed
02-Sep-18 16:04 32.570621 -116.984981 282 522ft 0kts
02-Sep-18 16:05 32.570621 -116.984981 282 522ft 0kts
02-Sep-18 16:06 32.570621 -116.984981 282 522ft 0kts
02-Sep-18 16:07 32.570621 -116.984981 282 522ft 0kts
02-Sep-18 16:08 32.570621 -116.984981 282 522ft 0kts
02-Sep-18 16:09 32.570621 -116.984981 282 522ft 0kts
02-Sep-18 16:10 32.570621 -116.984981 282 522ft 0kts
02-Sep-18 16:11 32.570621 -116.984981 282 522ft 0kts
02-Sep-18 16:12 32.570621 -116.984981 282 522ft 0kts
02-Sep-18 16:13 32.570621 -116.984981 282 522ft 0kts
02-Sep-18 16:14 32.570621 -116.984981 282 522ft 0kts
02-Sep-18 16:15 32.570621 -116.984981 282 522ft 0kts
02-Sep-18 16:16 32.570621 -116.984981 282 522ft 0kts
02-Sep-18 16:16 32.570621 -116.984981 282 522ft 0kts
02-Sep-18 16:18 32.570621 -116.984981 282 522ft 0kts
02-Sep-18 16:19 32.570621 -116.984981 282 522ft 0kts
02-Sep-18 16:20 32.570642 -116.985046 302 522ft 2kts
02-Sep-18 16:20 32.570550 -116.982901 96 519ft 15kts
02-Sep-18 16:21 32.569990 -116.976439 94 512ft 22kts
02-Sep-18 16:22 32.569502 -116.970316 95 512ft 15kts
02-Sep-18 16:23 32.570217 -116.968550 265 512ft 3kts
02-Sep-18 16:24 32.570762 -116.968323 4 512ft 7kts
02-Sep-18 16:25 32.570847 -116.968315 4 512ft 0kts
02-Sep-18 16:26 32.571304 -116.968267 5 512ft 8kts
02-Sep-18 16:27 32.573667 -116.987925 278 835ft 100kts
02-Sep-18 16:28 32.584612 -117.022399 289 1771ft 116kts
02-Sep-18 16:29 32.596749 -117.058444 289 2775ft 119kts
02-Sep-18 16:30 32.611326 -117.100711 290 3208ft 148kts
02-Sep-18 16:31 32.627683 -117.142748 316 4169ft 140kts
02-Sep-18 16:32 32.662584 -117.160216 333 5287ft 130kts
02-Sep-18 16:33 32.695400 -117.177366 332 5984ft 141kts
02-Sep-18 16:34 32.734101 -117.198642 331 5975ft 161kts
02-Sep-18 16:35 32.775046 -117.221803 331 5977ft 165kts
02-Sep-18 16:36 32.817110 -117.244262 339 5953ft 168kts
02-Sep-18 16:37 32.862379 -117.257304 343 5950ft 168kts
02-Sep-18 16:38 32.906224 -117.276760 336 5956ft 170kts
02-Sep-18 16:39 32.950314 -117.296319 338 5950ft 171kts
02-Sep-18 16:40 32.995139 -117.315353 339 5957ft 172kts
02-Sep-18 16:41 33.040197 -117.334148 338 5949ft 170kts
02-Sep-18 16:42 33.084613 -117.352698 337 5947ft 169kts
02-Sep-18 16:43 33.123432 -117.368852 338 5951ft 169kts
02-Sep-18 16:44 33.167805 -117.387306 338 5947ft 169kts
02-Sep-18 16:45 33.212323 -117.405739 339 5947ft 170kts
02-Sep-18 16:46 33.254604 -117.428542 312 5952ft 169kts
02-Sep-18 16:47 33.286923 -117.468938 311 5995ft 168kts
02-Sep-18 16:48 33.320042 -117.508774 313 5994ft 169kts
02-Sep-18 16:49 33.353336 -117.547886 313 5994ft 170kts
02-Sep-18 16:50 33.385911 -117.585863 313 5993ft 170kts
02-Sep-18 16:51 33.419825 -117.625298 312 5995ft 172kts
02-Sep-18 16:52 33.453205 -117.664350 311 5992ft 174kts
02-Sep-18 16:53 33.487103 -117.704995 308 6001ft 172kts
02-Sep-18 16:54 33.514880 -117.750768 308 5996ft 173kts
02-Sep-18 16:55 33.551980 -117.787704 318 5994ft 174kts
02-Sep-18 16:56 33.588787 -117.825183 314 5994ft 174kts
02-Sep-18 16:57 33.623269 -117.864270 312 5993ft 173kts
02-Sep-18 16:58 33.658044 -117.905218 312 5995ft 173kts
02-Sep-18 16:59 33.687479 -117.949837 291 5996ft 170kts
02-Sep-18 17:00 33.707048 -118.000989 291 5996ft 170kts
02-Sep-18 17:01 33.726541 -118.052869 290 5969ft 171kts
02-Sep-18 17:02 33.746009 -118.104713 291 5969ft 170kts
02-Sep-18 17:03 33.765290 -118.156302 291 5970ft 170kts
02-Sep-18 17:04 33.785234 -118.207334 299 5969ft 171kts
02-Sep-18 17:05 33.813987 -118.250626 309 5993ft 167kts
02-Sep-18 17:06 33.846894 -118.289356 314 5993ft 167kts
02-Sep-18 17:07 33.881760 -118.326234 315 5996ft 167kts
02-Sep-18 17:08 33.916975 -118.362372 315 5995ft 167kts
02-Sep-18 17:09 33.949725 -118.395553 316 5998ft 167kts
02-Sep-18 17:10 33.984994 -118.431281 315 5995ft 167kts
02-Sep-18 17:11 34.020252 -118.467131 317 5995ft 168kts
02-Sep-18 17:12 34.055657 -118.503767 312 5962ft 169kts
02-Sep-18 17:13 34.089421 -118.545411 311 4965ft 177kts
02-Sep-18 17:14 34.120200 -118.583213 312 4028ft 154kts
02-Sep-18 17:15 34.144466 -118.611997 310 3950ft 99kts
02-Sep-18 17:16 34.166367 -118.638796 311 3981ft 125kts
02-Sep-18 17:17 34.188716 -118.666407 310 3976ft 121kts
02-Sep-18 17:18 34.212232 -118.693691 310 4003ft 112kts
02-Sep-18 17:19 34.234186 -118.718288 310 4001ft 108kts
02-Sep-18 17:20 34.255892 -118.741905 326 4007ft 110kts
02-Sep-18 17:21 34.267624 -118.719581 144 4009ft 111kts
02-Sep-18 17:22 34.242815 -118.696955 149 4006ft 114kts
02-Sep-18 17:23 34.230369 -118.660061 111 4005ft 124kts
02-Sep-18 17:24 34.219937 -118.620820 111 4012ft 125kts
02-Sep-18 17:25 34.209334 -118.581256 111 4027ft 119kts
02-Sep-18 17:26 34.200273 -118.546709 93 3696ft 90kts
02-Sep-18 17:27 34.199870 -118.515517 94 3156ft 99kts
02-Sep-18 17:28 34.199334 -118.480705 92 2618ft 110kts
02-Sep-18 17:29 34.198904 -118.443997 92 2003ft 106kts
02-Sep-18 17:30 34.198412 -118.409063 91 1437ft 103kts
02-Sep-18 17:31 34.198001 -118.376742 91 891ft 87kts
02-Sep-18 17:32 34.198199 -118.360361 358 722ft 8kts
02-Sep-18 17:33 34.198579 -118.360402 350 723ft 1kts
02-Sep-18 17:34 34.199477 -118.361244 357 725ft 7kts
02-Sep-18 17:35 34.199642 -118.361243 1 726ft 0kts

Navigation Log

Ident Type
Flight plan parsing failed, navigation log unavailable